This is the latest recevied weather packets stored in our database for station/object W2BP-13. If no packets are shown the sender has not sent any weather packets the latest 10 day(s).
| Time | Temp. | Humidity | Pressure | Rain* | Wind** | Luminosity | Snow |
|---|---|---|---|---|---|---|---|
| 1777993833 | 19.44° C | 60% | 1015.4 hPa | 0 mm | - | - | - |
| 1777992933 | 18.89° C | 63% | 1015.2 hPa | 0 mm | - | - | - |
| 1777992032 | 17.78° C | 66% | 1015 hPa | 0 mm | - | - | - |
| 1777991132 | 17.22° C | 67% | 1014.9 hPa | 0 mm | - | - | - |
| 1777989333 | 16.67° C | 70% | 1014.5 hPa | 0 mm | - | - | - |
| 1777988432 | 16.11° C | 71% | 1014.2 hPa | 0 mm | - | - | - |
| 1777987533 | 16.11° C | 73% | 1014.1 hPa | 0 mm | - | - | - |
| 1777986632 | 15.56° C | 74% | 1013.7 hPa | 0 mm | - | - | - |
| 1777985733 | 15.56° C | 75% | 1013.8 hPa | 0 mm | - | - | - |
| 1777984832 | 15° C | 77% | 1013.4 hPa | 0 mm | - | - | - |
| 1777983932 | 15° C | 78% | 1013.4 hPa | 0 mm | - | - | - |
| 1777983032 | 15° C | 77% | 1013.3 hPa | 0 mm | - | - | - |
| 1777982132 | 15.56° C | 75% | 1013 hPa | 0 mm | - | - | - |
| 1777981233 | 16.11° C | 73% | 1012.9 hPa | 0 mm | - | - | - |
| 1777980332 | 16.67° C | 72% | 1012.8 hPa | 0 mm | - | - | - |
| 1777979432 | 16.67° C | 72% | 1012.5 hPa | 0 mm | - | - | - |
| 1777978533 | 16.67° C | 72% | 1012.4 hPa | 0 mm | - | - | - |
| 1777977632 | 16.67° C | 71% | 1012.1 hPa | 0 mm | - | - | - |
| 1777976733 | 16.67° C | 72% | 1012.2 hPa | 0 mm | - | - | - |
| 1777975833 | 16.67° C | 72% | 1012 hPa | 0 mm | - | - | - |
| 1777974932 | 16.67° C | 72% | 1012.2 hPa | 0 mm | - | - | - |
| 1777974032 | 16.67° C | 70% | 1011.9 hPa | 0 mm | - | - | - |
| 1777973133 | 17.22° C | 70% | 1011.8 hPa | 0 mm | - | - | - |
| 1777972232 | 16.67° C | 70% | 1011.7 hPa | 0 mm | - | - | - |
| 1777971332 | 17.22° C | 69% | 1011.9 hPa | 0 mm | - | - | - |
* Rain latest hour (hover to see other rain measurements)
** Current wind speed in m/s (hover to see current wind gust speed)